Time;durP1;ratioP1;P1;durP2;ratioP2;P2;SDS_P1;SDS_P2;PMS_P1;PMS_P2;Temp;Humidity;BMP_temperature;BMP_pressure;BME280_temperature;BME280_humidity;BME280_pressure;Samples;Min_cycle;Max_cycle;Signal;HPM_P1;HPM_P2
2023/07/13 00:02:11;;;;;;;1.77;1.10;;;;;;;20.78;66.59;98028.91;4976033;28;20221;-76
2023/07/13 00:04:37;;;;;;;4.40;1.27;;;;;;;20.73;66.31;98028.97;4975713;28;20671;-76
2023/07/13 00:07:04;;;;;;;5.60;1.50;;;;;;;20.70;67.47;98021.47;4975910;28;20311;-76
2023/07/13 00:09:30;;;;;;;1.40;1.13;;;;;;;20.56;68.87;98026.69;4975921;28;20205;-76
2023/07/13 00:11:58;;;;;;;3.73;1.33;;;;;;;20.55;67.36;98018.88;4975903;28;20214;-76
2023/07/13 00:14:26;;;;;;;2.83;1.10;;;;;;;20.59;65.81;98030.72;4975862;28;20215;-76
2023/07/13 00:16:53;;;;;;;2.00;1.20;;;;;;;20.56;65.47;98017.78;4975500;28;20232;-76
2023/07/13 00:19:19;;;;;;;1.30;1.17;;;;;;;20.50;65.82;98010.81;4975324;28;20208;-76
2023/07/13 00:21:46;;;;;;;3.17;1.17;;;;;;;20.44;65.78;98028.94;4975702;28;20208;-76
2023/07/13 00:24:18;;;;;;;2.90;1.40;;;;;;;20.44;65.54;98025.44;4975693;28;20215;-76
2023/07/13 00:26:45;;;;;;;2.10;1.20;;;;;;;20.36;66.73;98020.66;4975578;28;20255;-76
2023/07/13 00:29:13;;;;;;;2.87;1.27;;;;;;;20.40;65.54;98019.00;4975544;28;20203;-76
2023/07/13 00:31:39;;;;;;;1.97;1.13;;;;;;;20.28;67.22;98018.53;4975542;28;20208;-76
2023/07/13 00:34:05;;;;;;;4.53;1.30;;;;;;;20.23;66.92;98014.00;4975447;28;20282;-76
2023/07/13 00:36:32;;;;;;;1.20;1.10;;;;;;;20.20;64.67;98017.25;4975358;28;20232;-76
2023/07/13 00:38:59;;;;;;;5.43;1.40;;;;;;;20.25;65.38;98016.44;4975434;28;20212;-76
2023/07/13 00:41:26;;;;;;;3.47;1.30;;;;;;;20.18;65.26;98029.41;4975631;28;20211;-76
2023/07/13 00:43:52;;;;;;;1.60;1.17;;;;;;;20.09;67.26;98031.09;4975597;28;20219;-76
2023/07/13 00:46:25;;;;;;;4.47;1.37;;;;;;;20.08;65.19;98026.78;4975106;28;20231;-76
2023/07/13 00:48:53;;;;;;;3.30;1.50;;;;;;;20.03;66.96;98026.81;4975235;28;20256;-76
2023/07/13 00:51:26;;;;;;;2.37;1.40;;;;;;;20.01;65.73;98023.56;4975232;28;20211;-76
2023/07/13 00:53:55;;;;;;;3.60;1.37;;;;;;;20.03;65.35;98026.81;4975450;28;20202;-76
2023/07/13 00:56:22;;;;;;;3.03;1.10;;;;;;;19.94;66.83;98031.97;4974694;28;20228;-76
2023/07/13 00:58:49;;;;;;;2.90;1.20;;;;;;;19.94;65.17;98031.97;4974888;28;20695;-76
2023/07/13 01:01:16;;;;;;;2.83;1.40;;;;;;;20.00;66.05;98030.06;4975069;28;20302;-76
2023/07/13 01:03:42;;;;;;;3.43;1.50;;;;;;;20.00;64.38;98032.75;4975053;28;20208;-76
2023/07/13 01:06:09;;;;;;;2.80;1.20;;;;;;;19.90;67.04;98044.41;4974938;28;20224;-76
2023/07/13 01:08:35;;;;;;;2.77;1.40;;;;;;;19.76;66.34;98050.69;4975040;28;20220;-76
2023/07/13 01:11:02;;;;;;;5.00;1.70;;;;;;;19.81;65.04;98047.97;4974675;28;20643;-76
2023/07/13 01:13:28;;;;;;;3.13;1.30;;;;;;;19.83;64.92;98046.63;4975464;28;20212;-76
2023/07/13 01:15:59;;;;;;;4.13;1.40;;;;;;;19.77;66.90;98049.63;4974439;28;20235;-76
2023/07/13 01:18:27;;;;;;;6.30;1.40;;;;;;;19.72;67.03;98052.34;4973700;28;20192;-76
2023/07/13 01:20:59;;;;;;;3.20;1.80;;;;;;;19.63;66.99;98040.50;4974836;28;20204;-76
2023/07/13 01:23:27;;;;;;;2.97;1.00;;;;;;;19.60;67.77;98039.97;4974547;28;20211;-76
2023/07/13 01:25:55;;;;;;;2.33;1.33;;;;;;;19.49;67.79;98046.50;4974712;28;20204;-76
2023/07/13 01:28:22;;;;;;;4.50;1.30;;;;;;;19.57;68.57;98047.03;4974526;28;20303;-77
2023/07/13 01:30:48;;;;;;;1.50;1.20;;;;;;;19.53;67.01;98044.88;4978486;28;20667;-76
2023/07/13 01:33:17;;;;;;;3.33;1.27;;;;;;;19.41;68.63;98046.28;4978251;28;20207;-76
2023/07/13 01:35:45;;;;;;;2.83;1.37;;;;;;;19.44;66.87;98041.13;4978542;28;20238;-76
2023/07/13 01:38:14;;;;;;;3.13;1.57;;;;;;;19.57;65.04;98053.19;4978819;28;20231;-76
2023/07/13 01:40:40;;;;;;;3.73;1.40;;;;;;;19.40;67.73;98058.94;4978703;28;20222;-76
2023/07/13 01:43:07;;;;;;;4.67;1.40;;;;;;;19.42;66.97;98064.06;4978564;28;20212;-76
2023/07/13 01:45:33;;;;;;;3.23;1.23;;;;;;;19.42;67.48;98062.16;4978603;28;20211;-76
2023/07/13 01:48:00;;;;;;;3.23;1.20;;;;;;;19.36;67.45;98074.03;4978192;28;20216;-76
2023/07/13 01:50:27;;;;;;;4.23;1.27;;;;;;;19.18;69.42;98063.81;4978513;28;20204;-76
2023/07/13 01:52:53;;;;;;;4.10;1.40;;;;;;;19.14;71.01;98065.44;4978192;28;20212;-76
2023/07/13 01:55:21;;;;;;;2.70;1.30;;;;;;;19.00;70.82;98064.38;4978421;28;20208;-77
2023/07/13 01:57:48;;;;;;;3.20;1.20;;;;;;;18.97;72.27;98067.66;4978250;28;20232;-76
2023/07/13 02:00:15;;;;;;;3.17;1.40;;;;;;;18.96;71.97;98066.00;4978336;28;20247;-76
2023/07/13 02:02:42;;;;;;;4.60;1.30;;;;;;;18.85;71.74;98067.13;4978226;28;20214;-76
2023/07/13 02:05:09;;;;;;;3.30;1.40;;;;;;;19.04;67.37;98065.47;4978274;28;20227;-76
2023/07/13 02:07:35;;;;;;;2.80;1.23;;;;;;;19.21;65.74;98065.97;4978140;28;20224;-76
2023/07/13 02:10:02;;;;;;;3.93;1.30;;;;;;;19.16;66.64;98066.00;4978179;28;20217;-76
2023/07/13 02:12:28;;;;;;;1.20;1.10;;;;;;;18.98;69.60;98077.34;4978080;28;20208;-76
2023/07/13 02:14:54;;;;;;;3.13;1.27;;;;;;;18.99;70.16;98080.81;4978014;28;20204;-76
2023/07/13 02:17:21;;;;;;;1.47;1.10;;;;;;;18.89;70.71;98075.44;4977836;28;20232;-76
2023/07/13 02:19:47;;;;;;;2.87;1.50;;;;;;;18.75;70.20;98080.59;4977924;28;20203;-76
2023/07/13 02:22:14;;;;;;;3.20;1.30;;;;;;;18.76;72.66;98073.31;4977906;28;20207;-76
2023/07/13 02:24:40;;;;;;;1.63;1.10;;;;;;;18.73;72.74;98077.34;4977571;28;20207;-76
2023/07/13 02:27:07;;;;;;;3.83;1.30;;;;;;;18.67;75.47;98078.44;4977766;28;20224;-76
2023/07/13 02:29:33;;;;;;;2.10;1.27;;;;;;;18.56;73.78;98076.00;4977746;28;20227;-76
2023/07/13 02:32:00;;;;;;;2.33;1.10;;;;;;;18.55;73.23;98080.56;4977707;28;20210;-77
2023/07/13 02:34:26;;;;;;;3.87;1.33;;;;;;;18.46;73.13;98087.56;4977678;28;20216;-76
2023/07/13 02:36:52;;;;;;;3.50;1.30;;;;;;;18.52;73.70;98081.13;4977549;28;20232;-77
2023/07/13 02:39:19;;;;;;;4.07;1.20;;;;;;;18.41;73.83;98079.50;4977553;28;20208;-77
2023/07/13 02:41:45;;;;;;;5.10;1.23;;;;;;;18.33;74.84;98079.22;4976843;28;20215;-76
2023/07/13 02:44:14;;;;;;;2.63;1.30;;;;;;;18.31;75.71;98084.84;4977483;28;20211;-76
2023/07/13 02:46:40;;;;;;;2.47;1.23;;;;;;;18.29;75.81;98087.00;4977137;28;20611;-76
2023/07/13 02:49:07;;;;;;;2.37;1.27;;;;;;;18.26;75.22;98097.47;4977477;28;20207;-76
2023/07/13 02:51:34;;;;;;;2.40;1.13;;;;;;;18.22;74.99;98093.69;4977425;28;20208;-76
2023/07/13 02:54:01;;;;;;;3.17;1.50;;;;;;;18.06;75.61;98095.53;4977385;28;20215;-76
2023/07/13 02:56:30;;;;;;;2.97;1.40;;;;;;;18.17;74.65;98083.75;4976945;28;20597;-76
2023/07/13 02:58:56;;;;;;;2.30;1.27;;;;;;;18.18;77.89;98090.75;4977222;28;20216;-76
2023/07/13 03:01:23;;;;;;;1.63;1.07;;;;;;;18.05;77.81;98091.25;4977182;28;20316;-76
2023/07/13 03:03:51;;;;;;;3.50;1.50;;;;;;;18.03;77.88;98092.59;4976411;28;20667;-76
2023/07/13 03:06:18;;;;;;;2.97;1.13;;;;;;;18.03;76.93;98095.28;4976944;28;20273;-76
2023/07/13 03:08:45;;;;;;;3.97;1.23;;;;;;;17.95;78.30;98099.28;4977252;28;20200;-76
2023/07/13 03:11:16;;;;;;;2.23;1.20;;;;;;;17.88;79.06;98106.81;4976879;28;20668;-76
2023/07/13 03:13:43;;;;;;;2.93;1.33;;;;;;;17.90;78.66;98109.22;4976926;28;20320;-76
2023/07/13 03:16:10;;;;;;;3.63;1.37;;;;;;;17.93;79.03;98119.47;4977077;28;20224;-76
2023/07/13 03:18:38;;;;;;;4.07;1.00;;;;;;;18.00;80.41;98110.06;4976729;28;20231;-76
2023/07/13 03:21:06;;;;;;;2.13;1.37;;;;;;;18.07;77.83;98110.63;4976808;28;20208;-76
2023/07/13 03:23:32;;;;;;;4.93;1.40;;;;;;;18.17;80.67;98109.84;4976642;28;20215;-76
2023/07/13 03:26:13;;;;;;;4.07;1.33;;;;;;;18.25;81.94;98112.84;4976657;28;20231;-76
2023/07/13 03:28:41;;;;;;;1.80;1.20;;;;;;;18.26;75.30;98119.00;4976431;28;20192;-76
2023/07/13 03:31:16;;;;;;;2.50;1.20;;;;;;;18.42;74.36;98124.19;4976676;28;20578;-76
2023/07/13 03:33:44;;;;;;;2.00;1.20;;;;;;;18.45;74.43;98120.16;4976414;28;20196;-76
2023/07/13 03:36:18;;;;;;;3.33;1.30;;;;;;;18.50;75.54;98126.34;4976141;28;20224;-76
2023/07/13 03:38:46;;;;;;;2.97;1.07;;;;;;;18.57;75.92;98132.28;4975512;28;20292;-76
2023/07/13 03:41:12;;;;;;;3.00;1.20;;;;;;;18.58;74.05;98131.22;4975599;28;20557;-76
2023/07/13 03:43:39;;;;;;;2.17;1.10;;;;;;;18.61;74.05;98128.00;4975269;28;20691;-76
2023/07/13 03:46:05;;;;;;;3.10;1.13;;;;;;;18.60;74.38;98136.34;4975523;28;20238;-76
2023/07/13 03:48:32;;;;;;;4.27;1.30;;;;;;;18.68;72.81;98133.91;4976123;28;20647;-76
2023/07/13 03:50:58;;;;;;;1.43;1.33;;;;;;;18.70;72.86;98141.72;4976379;28;20211;-76
2023/07/13 03:53:24;;;;;;;1.23;1.10;;;;;;;18.72;72.09;98139.56;4974795;28;20578;-76
2023/07/13 03:55:51;;;;;;;3.50;1.50;;;;;;;18.76;72.14;98141.47;4975857;28;20203;-76
2023/07/13 03:58:35;;;;;;;2.23;1.20;;;;;;;18.69;72.74;98140.91;4976044;28;20220;-76
2023/07/13 04:01:02;;;;;;;2.30;1.50;;;;;;;18.67;73.18;98148.47;4975582;28;20196;-77
2023/07/13 04:03:32;;;;;;;4.57;1.33;;;;;;;18.64;73.65;98148.19;4975621;28;20602;-77
2023/07/13 04:06:02;;;;;;;1.83;1.30;;;;;;;18.75;71.35;98145.25;4975287;28;20698;-76
2023/07/13 04:08:34;;;;;;;2.70;1.20;;;;;;;18.70;71.94;98142.53;4973788;28;20200;-76
2023/07/13 04:11:00;;;;;;;1.60;1.37;;;;;;;18.71;74.57;98146.03;4973286;28;20208;-76
2023/07/13 04:13:27;;;;;;;2.00;1.50;;;;;;;18.64;73.33;98142.81;4971851;28;20576;-76
2023/07/13 04:15:55;;;;;;;2.97;1.27;;;;;;;18.64;73.84;98148.19;4973936;28;20286;-76
2023/07/13 04:18:21;;;;;;;3.70;1.37;;;;;;;18.60;75.16;98149.81;4974902;28;20235;-76
2023/07/13 04:20:49;;;;;;;3.17;1.40;;;;;;;18.62;73.54;98145.75;4975695;28;20216;-76
2023/07/13 04:23:16;;;;;;;4.13;1.53;;;;;;;18.58;73.42;98147.38;4963705;28;20213;-76
2023/07/13 04:25:49;;;;;;;2.57;1.33;;;;;;;18.63;74.71;98147.38;4975085;28;20215;-76
2023/07/13 04:28:17;;;;;;;4.53;1.53;;;;;;;18.73;71.75;98150.06;4981901;28;20207;-76
2023/07/13 04:30:43;;;;;;;2.83;1.30;;;;;;;18.65;73.26;98156.00;4974987;28;20212;-76
2023/07/13 04:33:10;;;;;;;3.67;1.50;;;;;;;18.67;71.73;98153.84;4975355;28;20287;-76
2023/07/13 04:35:37;;;;;;;3.20;1.40;;;;;;;18.68;72.47;98155.44;4975314;28;20212;-77
2023/07/13 04:38:04;;;;;;;4.67;1.30;;;;;;;18.60;74.93;98147.91;4974848;28;20228;-76
2023/07/13 04:40:30;;;;;;;3.93;1.60;;;;;;;18.54;73.50;98159.75;4972321;28;20206;-76
2023/07/13 04:42:57;;;;;;;3.30;1.33;;;;;;;18.53;74.86;98160.81;4967317;28;20207;-76
2023/07/13 04:45:25;;;;;;;2.47;1.40;;;;;;;18.49;75.69;98164.31;4994122;28;20203;-76
2023/07/13 04:47:52;;;;;;;4.17;1.30;;;;;;;18.40;78.19;98155.97;4974247;28;20358;-76
2023/07/13 04:50:22;;;;;;;2.77;1.50;;;;;;;18.29;77.47;98157.00;4975089;28;20215;-76
2023/07/13 04:52:49;;;;;;;2.77;1.07;;;;;;;18.25;76.79;98168.53;4974576;28;20614;-76
2023/07/13 04:55:16;;;;;;;4.20;1.37;;;;;;;18.29;77.06;98161.53;4973736;28;20217;-76
2023/07/13 04:57:42;;;;;;;3.23;1.50;;;;;;;18.31;75.78;98168.28;4974035;28;20227;-76
2023/07/13 05:00:09;;;;;;;2.17;1.50;;;;;;;18.29;77.74;98167.75;4974688;28;20660;-76
2023/07/13 05:02:35;;;;;;;2.97;1.10;;;;;;;18.30;77.75;98163.97;4974369;28;20211;-76
2023/07/13 05:05:03;;;;;;;3.10;1.50;;;;;;;18.29;77.53;98162.38;4974337;28;20212;-76
2023/07/13 05:07:30;;;;;;;2.27;1.33;;;;;;;18.26;75.81;98172.84;4974323;28;20230;-76
2023/07/13 05:09:56;;;;;;;4.90;1.40;;;;;;;18.33;75.92;98159.97;4974625;28;20295;-76
2023/07/13 05:12:23;;;;;;;8.00;1.77;;;;;;;18.49;76.55;98173.19;4974616;28;20220;-76
2023/07/13 05:14:49;;;;;;;5.57;1.40;;;;;;;18.62;75.52;98172.69;4973028;28;20223;-76
2023/07/13 05:17:16;;;;;;;9.00;2.47;;;;;;;18.86;74.10;98179.16;4972452;28;20231;-76
2023/07/13 05:19:42;;;;;;;9.33;2.97;;;;;;;18.92;71.71;98177.28;4974423;28;20212;-76
2023/07/13 05:22:08;;;;;;;15.03;2.30;;;;;;;18.92;73.74;98180.00;4972554;28;20215;-77
2023/07/13 05:24:35;;;;;;;61.27;6.93;;;;;;;18.98;72.81;98185.13;4974452;28;20214;-77
2023/07/13 05:27:01;;;;;;;9.87;1.97;;;;;;;18.98;71.22;98182.41;4973686;28;20584;-76
2023/07/13 05:29:28;;;;;;;4.50;1.17;;;;;;;18.98;73.97;98182.41;4970153;28;20212;-76
2023/07/13 05:31:54;;;;;;;4.17;1.50;;;;;;;19.08;68.48;98177.03;4970193;28;20214;-76
2023/07/13 05:34:20;;;;;;;10.50;2.30;;;;;;;19.09;71.02;98173.25;4958422;28;20307;-76
2023/07/13 05:36:47;;;;;;;23.90;3.47;;;;;;;19.14;70.02;98173.25;4973449;28;20250;-76
2023/07/13 05:39:13;;;;;;;42.60;5.93;;;;;;;19.19;73.39;98170.53;4973197;28;20238;-76
2023/07/13 05:41:40;;;;;;;19.73;2.70;;;;;;;19.18;73.81;98171.63;4972057;28;20571;-77
2023/07/13 05:44:06;;;;;;;5.63;1.43;;;;;;;19.05;69.04;98177.56;4966542;28;20218;-76
2023/07/13 05:46:33;;;;;;;8.73;1.60;;;;;;;18.98;70.46;98181.59;4972038;28;20723;-76
2023/07/13 05:48:59;;;;;;;2.27;1.40;;;;;;;19.02;73.29;98185.38;4971404;28;20210;-76
2023/07/13 05:51:26;;;;;;;8.20;2.10;;;;;;;19.00;70.90;98188.34;4970589;28;20211;-77
2023/07/13 05:53:52;;;;;;;6.47;2.00;;;;;;;18.97;73.15;98190.78;4969991;28;20207;-76
2023/07/13 05:56:18;;;;;;;5.43;1.50;;;;;;;19.04;72.93;98196.69;4963982;28;20728;-76
2023/07/13 05:58:45;;;;;;;4.33;1.53;;;;;;;19.07;70.94;98198.84;4979528;28;20231;-76
2023/07/13 06:01:13;;;;;;;5.07;1.43;;;;;;;19.10;73.40;98199.09;4971200;28;20211;-76
2023/07/13 06:03:41;;;;;;;3.23;1.53;;;;;;;19.14;73.59;98194.00;4972060;28;20219;-76
2023/07/13 06:06:09;;;;;;;3.20;1.30;;;;;;;19.20;70.85;98196.44;4972550;28;20598;-76
2023/07/13 06:08:36;;;;;;;3.13;1.50;;;;;;;19.34;68.57;98202.09;4975636;28;20632;-77
2023/07/13 06:11:14;;;;;;;4.73;1.70;;;;;;;19.63;69.59;98202.34;4971353;28;20532;-76
2023/07/13 06:13:41;;;;;;;2.90;1.63;;;;;;;19.77;67.54;98205.00;4962022;28;20211;-77
2023/07/13 06:16:08;;;;;;;15.37;2.30;;;;;;;19.76;69.35;98207.97;4974156;28;20610;-77
2023/07/13 06:18:36;;;;;;;7.07;1.60;;;;;;;19.99;66.56;98210.03;4975484;28;20352;-76
2023/07/13 06:21:17;;;;;;;2.97;1.40;;;;;;;19.76;63.11;98205.25;4977341;28;20668;-76
2023/07/13 06:23:44;;;;;;;15.70;2.57;;;;;;;19.77;64.21;98218.47;4973012;28;20200;-76
2023/07/13 06:26:11;;;;;;;3.63;1.70;;;;;;;19.99;64.60;98220.84;4957397;28;20225;-76
2023/07/13 06:28:39;;;;;;;4.60;1.67;;;;;;;19.95;65.88;98227.91;4973968;28;20664;-76
2023/07/13 06:31:08;;;;;;;3.13;1.53;;;;;;;19.88;62.74;98223.84;4976063;28;20218;-76
2023/07/13 06:33:34;;;;;;;12.07;2.70;;;;;;;19.77;64.81;98234.66;4975218;28;20219;-76
2023/07/13 06:36:02;;;;;;;6.67;1.60;;;;;;;19.63;65.01;98230.91;4973826;28;20551;-76
2023/07/13 06:38:29;;;;;;;23.63;3.20;;;;;;;19.78;64.14;98232.78;4974809;28;20235;-77
2023/07/13 06:40:55;;;;;;;57.17;5.53;;;;;;;19.95;63.93;98230.59;4973899;28;20660;-77
2023/07/13 06:43:22;;;;;;;12.23;2.30;;;;;;;20.19;63.78;98237.00;4973759;28;20208;-76
2023/07/13 06:45:49;;;;;;;4.47;1.60;;;;;;;20.27;62.73;98249.94;4974643;28;20204;-77
2023/07/13 06:48:20;;;;;;;2.93;1.60;;;;;;;20.46;61.70;98248.25;4974143;28;20611;-77
2023/07/13 06:50:47;;;;;;;9.57;1.77;;;;;;;20.37;60.41;98249.91;4969931;28;20243;-77
2023/07/13 06:53:14;;;;;;;6.63;1.60;;;;;;;20.27;59.92;98251.84;4974493;28;20556;-77
2023/07/13 06:55:40;;;;;;;2.13;1.40;;;;;;;20.37;58.95;98249.09;4974547;28;20524;-77
2023/07/13 06:58:07;;;;;;;2.73;1.47;;;;;;;20.47;59.93;98251.72;4974667;28;20250;-77
2023/07/13 07:00:34;;;;;;;2.30;1.47;;;;;;;20.42;59.35;98249.88;4975302;28;20238;-77
2023/07/13 07:03:00;;;;;;;1.63;1.20;;;;;;;20.41;60.00;98250.97;4975029;28;20208;-77
2023/07/13 07:05:27;;;;;;;4.67;1.70;;;;;;;20.40;59.69;98253.94;4975297;28;20212;-77
2023/07/13 07:07:56;;;;;;;2.90;1.27;;;;;;;20.45;59.39;98251.22;4975322;28;20220;-77
2023/07/13 07:10:22;;;;;;;3.13;1.80;;;;;;;20.55;60.35;98251.16;4976616;28;20208;-77
2023/07/13 07:12:49;;;;;;;4.93;1.30;;;;;;;20.61;59.73;98255.47;4976397;28;20215;-77
2023/07/13 07:15:16;;;;;;;4.20;1.63;;;;;;;20.77;60.48;98249.72;4976473;28;20215;-77
2023/07/13 07:17:42;;;;;;;5.30;1.63;;;;;;;20.83;57.51;98256.69;4976264;28;20235;-77
2023/07/13 07:20:09;;;;;;;2.03;1.20;;;;;;;20.81;57.38;98244.53;4976499;28;20303;-74
2023/07/13 07:22:35;;;;;;;1.50;1.30;;;;;;;20.89;56.99;98249.38;4976581;28;20212;-74
2023/07/13 07:25:02;;;;;;;2.93;1.40;;;;;;;21.04;56.07;98250.09;4976483;28;20243;-76
2023/07/13 07:27:29;;;;;;;5.20;1.73;;;;;;;21.12;54.74;98248.69;4976077;28;20806;-77
2023/07/13 07:29:57;;;;;;;3.03;1.50;;;;;;;21.20;55.12;98250.81;4976082;28;20689;-78
2023/07/13 07:32:24;;;;;;;3.10;1.40;;;;;;;21.51;51.39;98246.75;4976056;28;20211;-77
2023/07/13 07:34:50;;;;;;;2.63;1.40;;;;;;;21.33;52.26;98258.25;4975955;28;20208;-76
2023/07/13 07:37:17;;;;;;;4.07;1.40;;;;;;;21.19;52.34;98252.69;4976406;28;20231;-77
2023/07/13 07:39:44;;;;;;;2.73;1.30;;;;;;;21.22;51.15;98245.91;4976421;28;20228;-77
2023/07/13 07:42:12;;;;;;;2.53;1.30;;;;;;;21.33;50.23;98244.72;4975635;28;20267;-77
2023/07/13 07:44:41;;;;;;;3.40;1.20;;;;;;;21.63;50.58;98248.00;4976140;28;20302;-77
2023/07/13 07:47:08;;;;;;;3.63;1.47;;;;;;;21.81;52.31;98252.72;4975514;28;20583;-77
2023/07/13 07:49:36;;;;;;;3.47;1.43;;;;;;;21.57;48.23;98249.13;4975555;28;20204;-77
2023/07/13 07:52:03;;;;;;;1.87;1.20;;;;;;;21.91;47.69;98255.31;4975770;28;20204;-75
2023/07/13 07:54:29;;;;;;;2.63;1.40;;;;;;;22.16;46.79;98254.25;4975344;28;20215;-74
2023/07/13 07:56:55;;;;;;;3.00;1.30;;;;;;;21.96;48.12;98257.97;4975585;28;20228;-74
2023/07/13 07:59:22;;;;;;;3.30;1.15;;;;;;;21.72;51.34;98245.50;4975858;28;20227;-74
2023/07/13 08:01:50;;;;;;;3.03;1.20;;;;;;;21.57;47.75;98253.72;4976190;28;20239;-73
2023/07/13 08:04:17;;;;;;;3.90;1.27;;;;;;;21.72;50.59;98259.03;4975752;28;20572;-74
2023/07/13 08:06:43;;;;;;;3.35;1.38;;;;;;;21.65;47.15;98261.22;4976006;28;20232;-74
2023/07/13 08:09:09;;;;;;;3.67;1.40;;;;;;;21.83;50.85;98263.25;4975963;28;20215;-74
2023/07/13 08:11:36;;;;;;;3.30;1.02;;;;;;;21.69;45.74;98271.22;4975692;28;20216;-74
2023/07/13 08:14:03;;;;;;;3.27;1.20;;;;;;;21.85;48.09;98267.31;4975197;28;20211;-74
2023/07/13 08:16:29;;;;;;;3.42;1.30;;;;;;;21.53;46.41;98264.28;4975328;28;20314;-73
2023/07/13 08:18:56;;;;;;;3.80;1.40;;;;;;;21.67;47.25;98259.06;4975530;28;20228;-73
2023/07/13 08:21:22;;;;;;;2.27;1.20;;;;;;;21.78;48.28;98260.59;4975229;28;20742;-73
2023/07/13 08:23:49;;;;;;;3.33;1.40;;;;;;;21.59;47.52;98267.78;4975362;28;20271;-73
2023/07/13 08:26:15;;;;;;;4.87;1.43;;;;;;;22.04;48.10;98261.94;4975519;28;20224;-74
2023/07/13 08:28:42;;;;;;;3.23;1.57;;;;;;;22.14;48.85;98254.53;4975029;28;20210;-74
2023/07/13 08:31:10;;;;;;;3.85;1.20;;;;;;;22.32;47.20;98266.50;4975153;28;20231;-74
2023/07/13 08:33:38;;;;;;;2.78;1.40;;;;;;;22.76;45.89;98264.34;4975220;28;20208;-74
2023/07/13 08:36:05;;;;;;;5.07;1.45;;;;;;;22.79;46.26;98263.78;4975105;28;20699;-74
2023/07/13 08:38:31;;;;;;;3.35;1.30;;;;;;;22.12;47.54;98256.69;4974552;28;20231;-74
2023/07/13 08:40:58;;;;;;;3.35;1.50;;;;;;;22.34;48.76;98265.13;4975381;28;20214;-74
2023/07/13 08:43:36;;;;;;;3.65;1.20;;;;;;;22.62;47.35;98266.16;4975006;28;20207;-74
2023/07/13 08:46:12;;;;;;;3.53;1.40;;;;;;;21.94;47.30;98265.59;4974994;28;20587;-73
2023/07/13 08:49:00;;;;;;;2.25;1.30;;;;;;;22.40;48.63;98268.56;4975284;28;20556;-74
2023/07/13 08:51:52;;;;;;;2.92;1.48;;;;;;;22.27;48.17;98267.38;4974988;28;20208;-74
2023/07/13 08:54:33;;;;;;;3.33;1.30;;;;;;;22.67;46.70;98276.94;4975009;28;20216;-74
2023/07/13 08:57:04;;;;;;;3.60;1.27;;;;;;;22.32;45.94;98274.63;4973784;28;20231;-73
2023/07/13 08:59:34;;;;;;;3.70;1.40;;;;;;;22.53;46.81;98274.16;4974778;28;20223;-73
2023/07/13 09:02:12;;;;;;;4.65;1.40;;;;;;;22.41;47.04;98276.41;4974605;28;20196;-73
2023/07/13 09:04:49;;;;;;;3.88;1.50;;;;;;;22.89;48.54;98271.75;4974450;28;20272;-73
2023/07/13 09:07:35;;;;;;;3.28;1.10;;;;;;;22.87;46.05;98263.91;4974635;28;20231;-73
2023/07/13 09:10:26;;;;;;;2.92;1.55;;;;;;;23.34;47.22;98261.06;4974446;28;20191;-74
2023/07/13 09:12:58;;;;;;;2.53;1.40;;;;;;;23.51;44.41;98268.69;4974828;28;20204;-74
2023/07/13 09:15:36;;;;;;;4.10;1.30;;;;;;;23.49;44.56;98266.25;4974528;28;20675;-74
2023/07/13 09:18:30;;;;;;;5.82;1.60;;;;;;;23.49;45.39;98260.81;4974529;28;20192;-74
2023/07/13 09:21:05;;;;;;;3.28;1.30;;;;;;;23.39;46.96;98271.84;4973376;28;20541;-74
2023/07/13 09:23:32;;;;;;;3.58;1.30;;;;;;;23.72;46.00;98264.50;4974939;28;20201;-74
2023/07/13 09:26:10;;;;;;;4.38;1.52;;;;;;;23.14;44.95;98274.09;4974290;28;20227;-74
2023/07/13 09:28:43;;;;;;;3.15;1.23;;;;;;;23.35;42.72;98272.72;4974620;28;20199;-73
2023/07/13 09:31:35;;;;;;;3.28;1.40;;;;;;;23.25;43.94;98275.59;4974581;28;20220;-73
2023/07/13 09:34:02;;;;;;;2.25;1.42;;;;;;;23.26;44.28;98266.34;4974239;28;20199;-74
2023/07/13 09:36:32;;;;;;;2.83;1.58;;;;;;;23.20;43.10;98267.53;4974372;28;20652;-74
2023/07/13 09:39:28;;;;;;;3.65;1.38;;;;;;;23.42;42.09;98260.38;4974161;28;20220;-73
2023/07/13 09:42:16;;;;;;;2.45;1.25;;;;;;;23.39;42.77;98266.44;4973011;28;20196;-74
2023/07/13 09:44:58;;;;;;;3.45;1.40;;;;;;;23.37;44.42;98274.03;4974287;28;20648;-74
2023/07/13 09:47:27;;;;;;;3.40;1.50;;;;;;;23.33;42.65;98256.72;4974189;28;20270;-74
2023/07/13 09:50:06;;;;;;;2.53;1.35;;;;;;;23.75;45.67;98261.19;4974549;28;20207;-74
2023/07/13 09:52:43;;;;;;;3.35;1.60;;;;;;;23.97;44.24;98264.09;4977918;28;20196;-74
2023/07/13 09:55:38;;;;;;;4.80;1.45;;;;;;;24.23;43.39;98265.19;4978334;28;20222;-75
2023/07/13 09:58:10;;;;;;;2.85;1.50;;;;;;;24.09;43.33;98267.09;4978680;28;20196;-74
2023/07/13 10:00:37;;;;;;;4.97;1.40;;;;;;;23.39;43.08;98262.91;4978337;28;20184;-74
2023/07/13 10:03:17;;;;;;;2.00;1.30;;;;;;;23.45;42.85;98261.69;4977889;28;20547;-74
2023/07/13 10:05:46;;;;;;;3.00;1.58;;;;;;;23.41;44.08;98263.38;4978025;28;20196;-74
2023/07/13 10:08:32;;;;;;;3.40;1.30;;;;;;;23.95;43.73;98260.84;4978494;28;20223;-74
2023/07/13 10:11:10;;;;;;;2.78;1.40;;;;;;;23.58;42.61;98269.91;4978239;28;20227;-73
2023/07/13 10:13:43;;;;;;;3.00;1.25;;;;;;;23.26;42.77;98269.06;4977653;28;20618;-73
2023/07/13 10:16:10;;;;;;;3.60;1.30;;;;;;;23.56;43.56;98255.81;4977517;28;20234;-73
2023/07/13 10:18:45;;;;;;;2.35;1.60;;;;;;;23.79;41.94;98262.22;4977520;28;20235;-74
2023/07/13 10:21:14;;;;;;;5.38;1.38;;;;;;;23.80;43.63;98259.22;4977646;28;20199;-74
2023/07/13 10:23:43;;;;;;;3.97;1.30;;;;;;;23.83;41.37;98253.16;4977497;28;20219;-74
2023/07/13 10:26:20;;;;;;;4.80;1.38;;;;;;;24.28;42.35;98254.25;4977220;28;20228;-74
2023/07/13 10:28:52;;;;;;;6.35;1.60;;;;;;;24.45;42.97;98255.25;4977470;28;20199;-74
2023/07/13 10:31:20;;;;;;;4.03;1.42;;;;;;;24.26;40.97;98259.97;4977111;28;20739;-74
2023/07/13 10:33:47;;;;;;;3.50;1.58;;;;;;;24.27;41.55;98248.00;4977339;28;20266;-74
2023/07/13 10:36:28;;;;;;;3.40;1.33;;;;;;;24.33;40.95;98259.59;4977977;28;20235;-76
2023/07/13 10:38:58;;;;;;;2.75;1.23;;;;;;;24.43;42.15;98256.66;4976657;28;20208;-77
2023/07/13 10:41:27;;;;;;;3.50;1.30;;;;;;;24.18;41.33;98252.53;4976892;28;20683;-77
2023/07/13 10:43:57;;;;;;;2.97;1.30;;;;;;;24.07;40.96;98261.19;4976720;28;20212;-77
2023/07/13 10:46:27;;;;;;;4.22;1.33;;;;;;;24.58;40.98;98256.34;4977122;28;20658;-77
2023/07/13 10:48:59;;;;;;;1.58;1.38;;;;;;;24.72;41.73;98251.72;4978304;28;20203;-77
2023/07/13 10:51:26;;;;;;;3.35;1.48;;;;;;;24.42;40.44;98252.34;4976144;28;20251;-76
2023/07/13 10:54:15;;;;;;;4.80;1.50;;;;;;;24.35;43.75;98249.19;4977230;28;20208;-77
2023/07/13 10:56:41;;;;;;;2.95;1.30;;;;;;;24.40;41.20;98262.69;4976862;28;20239;-77
2023/07/13 10:59:29;;;;;;;5.07;1.50;;;;;;;24.75;44.37;98248.38;4976937;28;20286;-77
2023/07/13 11:01:58;;;;;;;3.42;1.50;;;;;;;24.50;41.32;98241.53;4975771;28;20667;-77
2023/07/13 11:04:27;;;;;;;3.88;1.45;;;;;;;24.58;41.53;98246.28;4976806;28;20303;-74
2023/07/13 11:06:59;;;;;;;2.38;1.42;;;;;;;24.68;41.38;98242.53;4976826;28;20322;-74
2023/07/13 11:09:38;;;;;;;2.85;1.38;;;;;;;24.23;43.62;98248.91;4977141;28;20196;-74
2023/07/13 11:12:30;;;;;;;2.88;1.60;;;;;;;23.69;41.87;98246.91;4976501;28;20656;-73
2023/07/13 11:14:57;;;;;;;2.60;1.42;;;;;;;24.16;41.84;98254.72;4977060;28;20235;-73
2023/07/13 11:17:33;;;;;;;3.20;1.45;;;;;;;23.76;41.64;98243.78;4976709;28;20224;-73
2023/07/13 11:20:14;;;;;;;2.38;1.25;;;;;;;23.66;41.95;98239.34;4976434;28;20223;-73
2023/07/13 11:22:53;;;;;;;3.67;1.40;;;;;;;23.80;41.43;98242.09;4976800;28;20218;-74
2023/07/13 11:25:26;;;;;;;3.55;1.63;;;;;;;24.07;41.83;98234.81;4976787;28;20192;-74
2023/07/13 11:28:04;;;;;;;6.00;1.63;;;;;;;24.12;40.94;98232.00;4975484;28;20232;-74
2023/07/13 11:30:31;;;;;;;2.35;1.30;;;;;;;24.11;40.61;98235.03;4975918;28;20203;-74
2023/07/13 11:33:13;;;;;;;4.03;1.42;;;;;;;24.05;41.78;98231.59;4975987;28;20218;-74
2023/07/13 11:35:46;;;;;;;4.30;1.40;;;;;;;24.31;40.30;98229.16;4975893;28;20212;-74
2023/07/13 11:38:29;;;;;;;1.40;1.20;;;;;;;24.10;41.23;98225.28;4975964;28;20200;-73
2023/07/13 11:40:56;;;;;;;4.38;1.35;;;;;;;24.03;42.54;98244.69;4975758;28;20586;-74
2023/07/13 11:43:24;;;;;;;3.25;1.33;;;;;;;24.02;40.56;98232.19;4975904;28;20575;-74
2023/07/13 11:45:51;;;;;;;3.17;1.58;;;;;;;23.94;42.74;98234.81;4976078;28;20235;-74